Terminal Aerodrome Forecast
Issued by NWS

Current Version | Previous Version | Text Only | Print | Product List | Glossary Off
Versions: 1 2 3 4 5 6 7 8 9 10 11 12 13 14 15 16 17 18

000
FTUS44 KOHX 222330
TAFCKV
TAF
KCKV 222330Z 2300/2324 08004KT P6SM SCT120 BKN250
     FM231200 26005KT P6SM BKN060
     FM232100 28003KT P6SM VCSH OVC040=

USA.gov is the U.S. government's official web portal to all federal, state and local government web resources and services.